sensor_id;sensor_type;location;lat;lon;timestamp;pressure;altitude;pressure_sealevel;temperature;humidity
77381;BME280;66439;50.106;10.996;2023-04-01T00:01:25;97095.88;;;10.47;67.15
77381;BME280;66439;50.106;10.996;2023-04-01T00:04:04;97100.92;;;10.45;67.07
77381;BME280;66439;50.106;10.996;2023-04-01T00:06:41;97097.45;;;10.42;66.95
77381;BME280;66439;50.106;10.996;2023-04-01T00:09:19;97096.80;;;10.38;67.17
77381;BME280;66439;50.106;10.996;2023-04-01T00:11:56;97093.64;;;10.36;67.04
77381;BME280;66439;50.106;10.996;2023-04-01T00:14:33;97096.70;;;10.33;67.25
77381;BME280;66439;50.106;10.996;2023-04-01T00:17:10;97093.06;;;10.33;67.15
77381;BME280;66439;50.106;10.996;2023-04-01T00:19:47;97085.65;;;10.35;67.17
77381;BME280;66439;50.106;10.996;2023-04-01T00:22:26;97080.86;;;10.39;67.26
77381;BME280;66439;50.106;10.996;2023-04-01T00:25:04;97079.66;;;10.39;67.07
77381;BME280;66439;50.106;10.996;2023-04-01T00:27:41;97079.84;;;10.42;67.12
77381;BME280;66439;50.106;10.996;2023-04-01T00:30:18;97086.16;;;10.43;67.16
77381;BME280;66439;50.106;10.996;2023-04-01T00:33:00;97089.52;;;10.42;67.06
77381;BME280;66439;50.106;10.996;2023-04-01T00:35:38;97083.55;;;10.40;66.99
77381;BME280;66439;50.106;10.996;2023-04-01T00:38:14;97085.71;;;10.39;67.04
77381;BME280;66439;50.106;10.996;2023-04-01T00:40:57;97083.96;;;10.39;67.05
77381;BME280;66439;50.106;10.996;2023-04-01T00:43:35;97086.27;;;10.38;66.95
77381;BME280;66439;50.106;10.996;2023-04-01T00:46:14;97083.41;;;10.37;66.95
77381;BME280;66439;50.106;10.996;2023-04-01T00:48:56;97081.52;;;10.39;66.93
77381;BME280;66439;50.106;10.996;2023-04-01T00:51:32;97080.65;;;10.39;66.69
77381;BME280;66439;50.106;10.996;2023-04-01T00:54:09;97075.35;;;10.37;66.88
77381;BME280;66439;50.106;10.996;2023-04-01T00:56:56;97074.79;;;10.37;66.82
77381;BME280;66439;50.106;10.996;2023-04-01T00:59:39;97073.30;;;10.34;66.86
77381;BME280;66439;50.106;10.996;2023-04-01T01:02:17;97076.43;;;10.32;66.94
77381;BME280;66439;50.106;10.996;2023-04-01T01:05:02;97075.36;;;10.30;66.84
77381;BME280;66439;50.106;10.996;2023-04-01T01:08:06;97070.27;;;10.29;66.80
77381;BME280;66439;50.106;10.996;2023-04-01T01:10:49;97072.85;;;10.28;66.85
77381;BME280;66439;50.106;10.996;2023-04-01T01:13:36;97070.34;;;10.30;66.81
77381;BME280;66439;50.106;10.996;2023-04-01T01:16:29;97068.91;;;10.33;66.63
77381;BME280;66439;50.106;10.996;2023-04-01T01:27:58;97056.77;;;10.35;66.60
77381;BME280;66439;50.106;10.996;2023-04-01T01:31:11;97058.68;;;10.34;66.56
77381;BME280;66439;50.106;10.996;2023-04-01T01:36:43;97059.37;;;10.32;66.45
77381;BME280;66439;50.106;10.996;2023-04-01T01:39:28;97058.16;;;10.31;66.27
77381;BME280;66439;50.106;10.996;2023-04-01T01:42:23;97056.81;;;10.28;66.32
77381;BME280;66439;50.106;10.996;2023-04-01T01:45:05;97055.33;;;10.28;66.34
77381;BME280;66439;50.106;10.996;2023-04-01T01:47:45;97053.54;;;10.31;66.22
77381;BME280;66439;50.106;10.996;2023-04-01T01:50:23;97056.16;;;10.33;66.09
77381;BME280;66439;50.106;10.996;2023-04-01T01:53:09;97053.95;;;10.35;66.08
77381;BME280;66439;50.106;10.996;2023-04-01T01:55:48;97059.34;;;10.37;66.10
77381;BME280;66439;50.106;10.996;2023-04-01T01:58:41;97058.14;;;10.39;65.94
77381;BME280;66439;50.106;10.996;2023-04-01T02:01:29;97060.27;;;10.37;65.73
77381;BME280;66439;50.106;10.996;2023-04-01T02:04:11;97058.08;;;10.38;65.72
77381;BME280;66439;50.106;10.996;2023-04-01T02:07:03;97054.29;;;10.36;65.68
77381;BME280;66439;50.106;10.996;2023-04-01T02:09:42;97053.17;;;10.34;65.77
77381;BME280;66439;50.106;10.996;2023-04-01T02:12:24;97050.95;;;10.33;65.56
77381;BME280;66439;50.106;10.996;2023-04-01T02:15:09;97047.34;;;10.29;65.59
77381;BME280;66439;50.106;10.996;2023-04-01T02:17:47;97043.42;;;10.26;65.64
77381;BME280;66439;50.106;10.996;2023-04-01T02:20:29;97038.07;;;10.26;65.49
77381;BME280;66439;50.106;10.996;2023-04-01T02:23:08;97038.68;;;10.25;65.33
77381;BME280;66439;50.106;10.996;2023-04-01T02:25:50;97039.41;;;10.27;65.42
77381;BME280;66439;50.106;10.996;2023-04-01T02:28:31;97035.48;;;10.28;65.56
77381;BME280;66439;50.106;10.996;2023-04-01T02:31:10;97042.27;;;10.30;65.46
77381;BME280;66439;50.106;10.996;2023-04-01T02:33:47;97045.28;;;10.31;65.39
77381;BME280;66439;50.106;10.996;2023-04-01T02:36:26;97043.53;;;10.31;65.46
77381;BME280;66439;50.106;10.996;2023-04-01T02:39:04;97045.19;;;10.28;65.24
77381;BME280;66439;50.106;10.996;2023-04-01T02:41:44;97047.09;;;10.26;65.37
77381;BME280;66439;50.106;10.996;2023-04-01T02:44:23;97044.11;;;10.26;65.31
77381;BME280;66439;50.106;10.996;2023-04-01T02:47:02;97048.81;;;10.25;65.20
77381;BME280;66439;50.106;10.996;2023-04-01T02:49:42;97050.70;;;10.23;65.20
77381;BME280;66439;50.106;10.996;2023-04-01T02:52:24;97053.91;;;10.20;65.38
77381;BME280;66439;50.106;10.996;2023-04-01T02:55:05;97049.59;;;10.19;65.27
77381;BME280;66439;50.106;10.996;2023-04-01T02:57:44;97047.87;;;10.19;65.28
77381;BME280;66439;50.106;10.996;2023-04-01T03:00:24;97049.05;;;10.19;65.20
77381;BME280;66439;50.106;10.996;2023-04-01T03:03:02;97045.93;;;10.21;65.18
77381;BME280;66439;50.106;10.996;2023-04-01T03:05:40;97053.27;;;10.22;65.00
77381;BME280;66439;50.106;10.996;2023-04-01T03:08:16;97052.48;;;10.24;65.09
77381;BME280;66439;50.106;10.996;2023-04-01T03:10:54;97057.58;;;10.24;65.29
77381;BME280;66439;50.106;10.996;2023-04-01T03:13:32;97050.89;;;10.26;65.00
77381;BME280;66439;50.106;10.996;2023-04-01T03:16:15;97054.36;;;10.26;65.01
77381;BME280;66439;50.106;10.996;2023-04-01T03:18:56;97058.70;;;10.25;65.06
77381;BME280;66439;50.106;10.996;2023-04-01T03:21:38;97055.77;;;10.23;64.96
77381;BME280;66439;50.106;10.996;2023-04-01T03:24:17;97057.13;;;10.21;65.11
77381;BME280;66439;50.106;10.996;2023-04-01T03:26:54;97058.92;;;10.17;65.06
77381;BME280;66439;50.106;10.996;2023-04-01T03:29:32;97059.80;;;10.16;65.17
77381;BME280;66439;50.106;10.996;2023-04-01T03:32:11;97061.85;;;10.15;65.28
77381;BME280;66439;50.106;10.996;2023-04-01T03:34:49;97061.81;;;10.14;65.42
77381;BME280;66439;50.106;10.996;2023-04-01T03:37:27;97061.34;;;10.13;65.58
77381;BME280;66439;50.106;10.996;2023-04-01T03:40:05;97062.80;;;10.14;65.68
77381;BME280;66439;50.106;10.996;2023-04-01T03:42:48;97070.69;;;10.16;65.75
77381;BME280;66439;50.106;10.996;2023-04-01T03:45:30;97070.95;;;10.20;65.76
77381;BME280;66439;50.106;10.996;2023-04-01T03:48:08;97072.66;;;10.20;65.92
77381;BME280;66439;50.106;10.996;2023-04-01T03:50:47;97072.73;;;10.24;65.72
77381;BME280;66439;50.106;10.996;2023-04-01T03:53:26;97074.91;;;10.24;65.74
77381;BME280;66439;50.106;10.996;2023-04-01T03:56:08;97070.70;;;10.26;65.82
77381;BME280;66439;50.106;10.996;2023-04-01T03:58:44;97070.95;;;10.27;65.58
77381;BME280;66439;50.106;10.996;2023-04-01T04:01:22;97073.20;;;10.25;65.52
77381;BME280;66439;50.106;10.996;2023-04-01T04:03:59;97071.01;;;10.22;65.50
77381;BME280;66439;50.106;10.996;2023-04-01T04:06:35;97075.34;;;10.22;65.38
77381;BME280;66439;50.106;10.996;2023-04-01T04:09:12;97076.55;;;10.19;65.39
77381;BME280;66439;50.106;10.996;2023-04-01T04:11:51;97079.00;;;10.15;65.27
77381;BME280;66439;50.106;10.996;2023-04-01T04:14:29;97081.17;;;10.15;65.31
77381;BME280;66439;50.106;10.996;2023-04-01T04:17:06;97082.21;;;10.13;65.42
77381;BME280;66439;50.106;10.996;2023-04-01T04:19:50;97081.23;;;10.12;65.38
77381;BME280;66439;50.106;10.996;2023-04-01T04:22:28;97080.16;;;10.17;65.33
77381;BME280;66439;50.106;10.996;2023-04-01T04:25:05;97081.19;;;10.21;65.40
77381;BME280;66439;50.106;10.996;2023-04-01T04:27:45;97085.38;;;10.23;65.41
77381;BME280;66439;50.106;10.996;2023-04-01T04:30:22;97084.19;;;10.25;65.34
77381;BME280;66439;50.106;10.996;2023-04-01T04:32:59;97083.23;;;10.28;65.14
77381;BME280;66439;50.106;10.996;2023-04-01T04:35:39;97086.06;;;10.33;65.28
77381;BME280;66439;50.106;10.996;2023-04-01T04:38:17;97084.03;;;10.36;65.04
77381;BME280;66439;50.106;10.996;2023-04-01T04:40:54;97087.61;;;10.38;64.94
77381;BME280;66439;50.106;10.996;2023-04-01T04:43:32;97082.92;;;10.36;64.86
77381;BME280;66439;50.106;10.996;2023-04-01T04:46:10;97086.64;;;10.33;64.69
77381;BME280;66439;50.106;10.996;2023-04-01T04:48:56;97087.83;;;10.32;64.73
77381;BME280;66439;50.106;10.996;2023-04-01T04:51:33;97087.25;;;10.30;64.54
77381;BME280;66439;50.106;10.996;2023-04-01T04:54:12;97088.34;;;10.27;64.54
77381;BME280;66439;50.106;10.996;2023-04-01T04:56:54;97091.62;;;10.25;64.61
77381;BME280;66439;50.106;10.996;2023-04-01T04:59:34;97095.29;;;10.21;64.57
77381;BME280;66439;50.106;10.996;2023-04-01T05:02:42;97093.02;;;10.19;64.68
77381;BME280;66439;50.106;10.996;2023-04-01T05:05:20;97097.23;;;10.23;64.62
77381;BME280;66439;50.106;10.996;2023-04-01T05:07:57;97099.17;;;10.26;64.79
77381;BME280;66439;50.106;10.996;2023-04-01T05:10:35;97094.84;;;10.28;64.89
77381;BME280;66439;50.106;10.996;2023-04-01T05:13:13;97094.82;;;10.29;64.90
77381;BME280;66439;50.106;10.996;2023-04-01T05:15:53;97096.88;;;10.32;64.90
77381;BME280;66439;50.106;10.996;2023-04-01T05:18:33;97096.73;;;10.31;64.62
77381;BME280;66439;50.106;10.996;2023-04-01T05:21:12;97092.48;;;10.29;64.58
77381;BME280;66439;50.106;10.996;2023-04-01T05:23:48;97093.37;;;10.30;64.60
77381;BME280;66439;50.106;10.996;2023-04-01T05:26:28;97096.33;;;10.31;64.66
77381;BME280;66439;50.106;10.996;2023-04-01T05:29:07;97097.91;;;10.31;64.46
77381;BME280;66439;50.106;10.996;2023-04-01T05:31:53;97097.71;;;10.30;64.55
77381;BME280;66439;50.106;10.996;2023-04-01T05:34:31;97100.52;;;10.30;64.54
77381;BME280;66439;50.106;10.996;2023-04-01T05:37:09;97100.59;;;10.29;64.73
77381;BME280;66439;50.106;10.996;2023-04-01T05:39:48;97100.36;;;10.28;64.66
77381;BME280;66439;50.106;10.996;2023-04-01T05:42:26;97103.30;;;10.25;64.69
77381;BME280;66439;50.106;10.996;2023-04-01T05:45:07;97101.71;;;10.25;64.77
77381;BME280;66439;50.106;10.996;2023-04-01T05:48:03;97103.95;;;10.30;64.81
77381;BME280;66439;50.106;10.996;2023-04-01T05:50:40;97105.21;;;10.34;64.73
77381;BME280;66439;50.106;10.996;2023-04-01T05:53:19;97102.88;;;10.36;64.79
77381;BME280;66439;50.106;10.996;2023-04-01T05:56:03;97102.97;;;10.39;64.74
77381;BME280;66439;50.106;10.996;2023-04-01T05:58:47;97104.12;;;10.42;64.67
77381;BME280;66439;50.106;10.996;2023-04-01T06:01:30;97105.88;;;10.44;64.75
77381;BME280;66439;50.106;10.996;2023-04-01T06:04:14;97100.76;;;10.43;64.64
77381;BME280;66439;50.106;10.996;2023-04-01T06:06:55;97103.77;;;10.43;64.65
77381;BME280;66439;50.106;10.996;2023-04-01T06:09:33;97104.19;;;10.39;64.57
77381;BME280;66439;50.106;10.996;2023-04-01T06:18:41;97106.77;;;10.36;65.12
77381;BME280;66439;50.106;10.996;2023-04-01T06:21:50;97104.89;;;10.35;65.14
77381;BME280;66439;50.106;10.996;2023-04-01T06:27:49;97111.91;;;10.38;65.29
77381;BME280;66439;50.106;10.996;2023-04-01T06:30:53;97110.01;;;10.41;65.43
77381;BME280;66439;50.106;10.996;2023-04-01T06:33:52;97108.02;;;10.46;65.43
77381;BME280;66439;50.106;10.996;2023-04-01T06:39:45;97113.36;;;10.51;65.08
77381;BME280;66439;50.106;10.996;2023-04-01T06:52:38;97115.77;;;10.44;65.21
77381;BME280;66439;50.106;10.996;2023-04-01T06:55:43;97114.59;;;10.44;64.91
77381;BME280;66439;50.106;10.996;2023-04-01T07:04:51;97110.02;;;10.40;64.62
77381;BME280;66439;50.106;10.996;2023-04-01T07:07:37;97113.62;;;10.40;64.60
77381;BME280;66439;50.106;10.996;2023-04-01T07:10:31;97114.64;;;10.44;64.79
77381;BME280;66439;50.106;10.996;2023-04-01T07:13:51;97113.55;;;10.49;64.95
77381;BME280;66439;50.106;10.996;2023-04-01T07:16:41;97113.00;;;10.51;64.93
77381;BME280;66439;50.106;10.996;2023-04-01T07:19:27;97116.21;;;10.52;64.90
77381;BME280;66439;50.106;10.996;2023-04-01T07:22:26;97113.46;;;10.54;64.80
77381;BME280;66439;50.106;10.996;2023-04-01T07:25:36;97114.45;;;10.56;64.88
77381;BME280;66439;50.106;10.996;2023-04-01T07:28:30;97110.92;;;10.58;64.65
77381;BME280;66439;50.106;10.996;2023-04-01T07:34:29;97112.15;;;10.64;64.81
77381;BME280;66439;50.106;10.996;2023-04-01T07:37:15;97116.13;;;10.66;64.80
77381;BME280;66439;50.106;10.996;2023-04-01T07:48:35;97124.56;;;10.65;64.73
77381;BME280;66439;50.106;10.996;2023-04-01T07:54:38;97127.13;;;10.70;65.33
77381;BME280;66439;50.106;10.996;2023-04-01T07:57:22;97134.62;;;10.74;65.40
77381;BME280;66439;50.106;10.996;2023-04-01T08:00:24;97132.15;;;10.75;65.72
77381;BME280;66439;50.106;10.996;2023-04-01T08:06:16;97136.98;;;10.70;65.99
77381;BME280;66439;50.106;10.996;2023-04-01T08:09:05;97135.17;;;10.71;66.24
77381;BME280;66439;50.106;10.996;2023-04-01T08:12:13;97138.02;;;10.73;66.37
77381;BME280;66439;50.106;10.996;2023-04-01T08:15:18;97144.73;;;10.70;66.52
77381;BME280;66439;50.106;10.996;2023-04-01T08:18:23;97142.33;;;10.70;66.56
77381;BME280;66439;50.106;10.996;2023-04-01T08:21:32;97145.10;;;10.72;66.69
77381;BME280;66439;50.106;10.996;2023-04-01T08:24:19;97145.34;;;10.79;66.74
77381;BME280;66439;50.106;10.996;2023-04-01T08:27:34;97145.92;;;10.84;66.91
77381;BME280;66439;50.106;10.996;2023-04-01T08:30:20;97145.20;;;10.90;66.93
77381;BME280;66439;50.106;10.996;2023-04-01T08:33:03;97144.39;;;10.96;66.96
77381;BME280;66439;50.106;10.996;2023-04-01T08:35:57;97147.64;;;11.02;67.03
77381;BME280;66439;50.106;10.996;2023-04-01T08:38:54;97146.89;;;11.08;67.25
77381;BME280;66439;50.106;10.996;2023-04-01T08:45:03;97144.77;;;11.12;67.00
77381;BME280;66439;50.106;10.996;2023-04-01T08:51:02;97143.45;;;11.18;66.86
77381;BME280;66439;50.106;10.996;2023-04-01T08:53:57;97145.23;;;11.19;67.04
77381;BME280;66439;50.106;10.996;2023-04-01T09:00:33;97151.33;;;11.25;67.13
77381;BME280;66439;50.106;10.996;2023-04-01T09:07:04;97147.27;;;11.32;67.47
77381;BME280;66439;50.106;10.996;2023-04-01T09:10:02;97154.08;;;11.32;67.18
77381;BME280;66439;50.106;10.996;2023-04-01T09:16:23;97151.34;;;11.30;67.28
77381;BME280;66439;50.106;10.996;2023-04-01T09:19:24;97159.84;;;11.25;67.57
77381;BME280;66439;50.106;10.996;2023-04-01T09:22:22;97160.45;;;11.22;67.64
77381;BME280;66439;50.106;10.996;2023-04-01T09:25:26;97162.85;;;11.18;67.76
77381;BME280;66439;50.106;10.996;2023-04-01T09:28:16;97164.25;;;11.16;67.83
77381;BME280;66439;50.106;10.996;2023-04-01T09:31:24;97164.16;;;11.15;67.83
77381;BME280;66439;50.106;10.996;2023-04-01T09:37:17;97167.14;;;11.21;67.74
77381;BME280;66439;50.106;10.996;2023-04-01T09:46:19;97160.75;;;11.25;67.83
77381;BME280;66439;50.106;10.996;2023-04-01T09:52:20;97161.83;;;11.21;67.53
77381;BME280;66439;50.106;10.996;2023-04-01T09:55:59;97160.92;;;11.14;67.03
77381;BME280;66439;50.106;10.996;2023-04-01T09:59:14;97163.20;;;11.09;67.20
77381;BME280;66439;50.106;10.996;2023-04-01T10:08:11;97163.42;;;11.00;66.46
77381;BME280;66439;50.106;10.996;2023-04-01T10:17:35;97169.01;;;10.94;66.52
77381;BME280;66439;50.106;10.996;2023-04-01T10:24:06;97165.63;;;10.85;66.43
77381;BME280;66439;50.106;10.996;2023-04-01T10:26:42;97161.44;;;10.80;66.77
77381;BME280;66439;50.106;10.996;2023-04-01T10:31:11;97157.30;;;10.81;66.83
77381;BME280;66439;50.106;10.996;2023-04-01T10:36:51;97154.20;;;10.84;66.64
77381;BME280;66439;50.106;10.996;2023-04-01T10:46:25;97157.39;;;10.93;67.36
77381;BME280;66439;50.106;10.996;2023-04-01T10:56:32;97155.50;;;10.94;68.14
77381;BME280;66439;50.106;10.996;2023-04-01T11:19:10;97154.56;;;10.87;69.44
77381;BME280;66439;50.106;10.996;2023-04-01T11:25:09;97156.02;;;10.86;69.76
77381;BME280;66439;50.106;10.996;2023-04-01T11:31:29;97157.86;;;10.85;69.87
77381;BME280;66439;50.106;10.996;2023-04-01T11:37:37;97153.95;;;10.98;69.91
77381;BME280;66439;50.106;10.996;2023-04-01T11:44:12;97153.13;;;11.10;69.63
77381;BME280;66439;50.106;10.996;2023-04-01T11:47:19;97150.91;;;11.13;69.78
77381;BME280;66439;50.106;10.996;2023-04-01T11:50:18;97155.95;;;11.14;69.37
77381;BME280;66439;50.106;10.996;2023-04-01T12:02:56;97156.23;;;11.15;69.12
77381;BME280;66439;50.106;10.996;2023-04-01T12:05:49;97158.97;;;11.20;69.27
77381;BME280;66439;50.106;10.996;2023-04-01T12:08:58;97159.20;;;11.22;69.09
77381;BME280;66439;50.106;10.996;2023-04-01T12:15:17;97163.02;;;11.24;69.12
77381;BME280;66439;50.106;10.996;2023-04-01T12:18:05;97162.17;;;11.25;69.12
77381;BME280;66439;50.106;10.996;2023-04-01T12:23:39;97163.83;;;11.25;69.04
77381;BME280;66439;50.106;10.996;2023-04-01T12:26:43;97164.98;;;11.26;69.15
77381;BME280;66439;50.106;10.996;2023-04-01T12:32:31;97167.68;;;11.30;69.15
77381;BME280;66439;50.106;10.996;2023-04-01T12:38:19;97165.20;;;11.34;69.26
77381;BME280;66439;50.106;10.996;2023-04-01T12:44:40;97164.55;;;11.36;69.00
77381;BME280;66439;50.106;10.996;2023-04-01T13:03:22;97165.17;;;11.73;69.34
77381;BME280;66439;50.106;10.996;2023-04-01T13:05:57;97159.09;;;11.80;69.39
77381;BME280;66439;50.106;10.996;2023-04-01T13:08:54;97159.15;;;11.91;69.34
77381;BME280;66439;50.106;10.996;2023-04-01T13:17:21;97160.31;;;12.09;68.60
77381;BME280;66439;50.106;10.996;2023-04-01T13:26:56;97158.11;;;11.97;68.18
77381;BME280;66439;50.106;10.996;2023-04-01T13:29:43;97162.05;;;11.94;68.24
77381;BME280;66439;50.106;10.996;2023-04-01T13:32:31;97162.13;;;11.93;68.42
77381;BME280;66439;50.106;10.996;2023-04-01T13:38:46;97175.19;;;11.87;68.33
77381;BME280;66439;50.106;10.996;2023-04-01T13:44:25;97180.10;;;11.80;68.79
77381;BME280;66439;50.106;10.996;2023-04-01T13:53:53;97189.55;;;11.74;69.23
77381;BME280;66439;50.106;10.996;2023-04-01T14:08:27;97186.75;;;11.76;70.00
77381;BME280;66439;50.106;10.996;2023-04-01T14:11:21;97185.49;;;11.77;69.98
77381;BME280;66439;50.106;10.996;2023-04-01T14:17:27;97192.42;;;11.79;69.58
77381;BME280;66439;50.106;10.996;2023-04-01T14:20:36;97188.52;;;11.76;69.57
77381;BME280;66439;50.106;10.996;2023-04-01T14:29:16;97187.79;;;11.77;70.06
77381;BME280;66439;50.106;10.996;2023-04-01T14:32:03;97190.42;;;11.80;70.00
77381;BME280;66439;50.106;10.996;2023-04-01T14:50:08;97195.64;;;11.88;69.63
77381;BME280;66439;50.106;10.996;2023-04-01T14:53:11;97195.11;;;11.91;69.55
77381;BME280;66439;50.106;10.996;2023-04-01T14:55:56;97194.83;;;11.91;69.39
77381;BME280;66439;50.106;10.996;2023-04-01T14:58:57;97199.30;;;11.91;69.66
77381;BME280;66439;50.106;10.996;2023-04-01T15:01:44;97203.09;;;11.89;69.39
77381;BME280;66439;50.106;10.996;2023-04-01T15:20:05;97214.63;;;11.84;69.63
77381;BME280;66439;50.106;10.996;2023-04-01T15:27:05;97211.81;;;11.86;69.96
77381;BME280;66439;50.106;10.996;2023-04-01T15:32:39;97214.27;;;11.83;69.74
77381;BME280;66439;50.106;10.996;2023-04-01T15:35:37;97221.96;;;11.79;69.57
77381;BME280;66439;50.106;10.996;2023-04-01T15:38:44;97220.98;;;11.77;69.67
77381;BME280;66439;50.106;10.996;2023-04-01T15:48:23;97233.24;;;11.72;69.88
77381;BME280;66439;50.106;10.996;2023-04-01T15:54:20;97241.71;;;11.66;69.82
77381;BME280;66439;50.106;10.996;2023-04-01T16:00:02;97249.48;;;11.58;70.08
77381;BME280;66439;50.106;10.996;2023-04-01T16:06:06;97254.92;;;11.49;70.64
77381;BME280;66439;50.106;10.996;2023-04-01T16:09:00;97255.06;;;11.48;70.52
77381;BME280;66439;50.106;10.996;2023-04-01T16:18:06;97264.23;;;11.44;71.29
77381;BME280;66439;50.106;10.996;2023-04-01T16:24:38;97268.71;;;11.43;71.07
77381;BME280;66439;50.106;10.996;2023-04-01T16:33:04;97278.74;;;11.43;71.41
77381;BME280;66439;50.106;10.996;2023-04-01T16:36:10;97277.75;;;11.44;71.45
77381;BME280;66439;50.106;10.996;2023-04-01T16:38:59;97280.91;;;11.43;71.66
77381;BME280;66439;50.106;10.996;2023-04-01T16:42:16;97283.48;;;11.47;71.76
77381;BME280;66439;50.106;10.996;2023-04-01T16:45:01;97288.71;;;11.49;71.71
77381;BME280;66439;50.106;10.996;2023-04-01T16:47:50;97291.14;;;11.48;71.78
77381;BME280;66439;50.106;10.996;2023-04-01T16:53:29;97299.63;;;11.43;71.65
77381;BME280;66439;50.106;10.996;2023-04-01T16:56:21;97297.92;;;11.37;71.70
77381;BME280;66439;50.106;10.996;2023-04-01T17:02:02;97302.05;;;11.37;71.85
77381;BME280;66439;50.106;10.996;2023-04-01T17:04:47;97303.67;;;11.36;72.08
77381;BME280;66439;50.106;10.996;2023-04-01T17:11:00;97305.54;;;11.36;72.22
77381;BME280;66439;50.106;10.996;2023-04-01T17:14:14;97310.59;;;11.36;72.07
77381;BME280;66439;50.106;10.996;2023-04-01T17:17:09;97315.32;;;11.34;72.31
77381;BME280;66439;50.106;10.996;2023-04-01T17:20:19;97318.61;;;11.32;72.18
77381;BME280;66439;50.106;10.996;2023-04-01T17:23:18;97326.47;;;11.33;71.90
77381;BME280;66439;50.106;10.996;2023-04-01T17:26:17;97323.81;;;11.35;71.73
77381;BME280;66439;50.106;10.996;2023-04-01T17:29:16;97334.48;;;11.32;71.77
77381;BME280;66439;50.106;10.996;2023-04-01T17:35:27;97336.41;;;11.28;71.89
77381;BME280;66439;50.106;10.996;2023-04-01T17:38:11;97342.98;;;11.25;72.06
77381;BME280;66439;50.106;10.996;2023-04-01T17:44:12;97344.88;;;11.22;72.05
77381;BME280;66439;50.106;10.996;2023-04-01T17:50:20;97352.69;;;11.18;71.78
77381;BME280;66439;50.106;10.996;2023-04-01T17:53:14;97357.20;;;11.24;71.69
77381;BME280;66439;50.106;10.996;2023-04-01T17:56:07;97362.92;;;11.26;71.63
77381;BME280;66439;50.106;10.996;2023-04-01T17:58:55;97367.13;;;11.26;71.83
77381;BME280;66439;50.106;10.996;2023-04-01T18:05:01;97370.77;;;11.23;71.67
77381;BME280;66439;50.106;10.996;2023-04-01T18:07:56;97377.14;;;11.19;71.65
77381;BME280;66439;50.106;10.996;2023-04-01T18:10:57;97381.69;;;11.15;71.77
77381;BME280;66439;50.106;10.996;2023-04-01T18:16:49;97388.72;;;11.15;71.82
77381;BME280;66439;50.106;10.996;2023-04-01T18:19:49;97394.59;;;11.17;71.65
77381;BME280;66439;50.106;10.996;2023-04-01T18:22:43;97403.34;;;11.18;71.83
77381;BME280;66439;50.106;10.996;2023-04-01T18:25:44;97404.61;;;11.21;71.71
77381;BME280;66439;50.106;10.996;2023-04-01T18:31:44;97414.15;;;11.12;71.80
77381;BME280;66439;50.106;10.996;2023-04-01T18:34:43;97417.34;;;11.12;71.83
77381;BME280;66439;50.106;10.996;2023-04-01T18:47:08;97440.45;;;11.12;71.89
77381;BME280;66439;50.106;10.996;2023-04-01T18:50:01;97441.81;;;11.11;71.94
77381;BME280;66439;50.106;10.996;2023-04-01T18:52:42;97447.36;;;11.09;72.07
77381;BME280;66439;50.106;10.996;2023-04-01T18:55:35;97446.05;;;11.12;71.98
77381;BME280;66439;50.106;10.996;2023-04-01T19:01:36;97453.56;;;11.12;72.01
77381;BME280;66439;50.106;10.996;2023-04-01T19:08:14;97460.11;;;11.14;71.85
77381;BME280;66439;50.106;10.996;2023-04-01T19:14:14;97466.97;;;11.23;71.79
77381;BME280;66439;50.106;10.996;2023-04-01T19:20:03;97471.31;;;11.22;71.72
77381;BME280;66439;50.106;10.996;2023-04-01T19:23:47;97474.52;;;11.22;71.66
77381;BME280;66439;50.106;10.996;2023-04-01T19:26:10;97480.99;;;11.18;71.48
77381;BME280;66439;50.106;10.996;2023-04-01T19:34:36;97483.05;;;11.11;71.55
77381;BME280;66439;50.106;10.996;2023-04-01T19:37:40;97481.65;;;11.08;71.63
77381;BME280;66439;50.106;10.996;2023-04-01T19:46:16;97489.93;;;10.99;72.06
77381;BME280;66439;50.106;10.996;2023-04-01T20:00:32;97500.98;;;10.87;72.22
77381;BME280;66439;50.106;10.996;2023-04-01T20:03:30;97504.73;;;10.88;72.51
77381;BME280;66439;50.106;10.996;2023-04-01T20:06:35;97506.17;;;10.87;72.45
77381;BME280;66439;50.106;10.996;2023-04-01T20:15:38;97524.00;;;10.88;72.58
77381;BME280;66439;50.106;10.996;2023-04-01T20:18:20;97528.88;;;10.86;72.54
77381;BME280;66439;50.106;10.996;2023-04-01T20:21:06;97530.60;;;10.85;72.43
77381;BME280;66439;50.106;10.996;2023-04-01T20:26:37;97533.14;;;10.90;72.37
77381;BME280;66439;50.106;10.996;2023-04-01T20:41:27;97542.88;;;10.84;72.83
77381;BME280;66439;50.106;10.996;2023-04-01T20:44:21;97546.27;;;10.84;72.61
77381;BME280;66439;50.106;10.996;2023-04-01T20:47:24;97551.87;;;10.85;72.54
77381;BME280;66439;50.106;10.996;2023-04-01T20:56:10;97558.16;;;10.85;72.65
77381;BME280;66439;50.106;10.996;2023-04-01T21:01:58;97562.36;;;10.81;72.68
77381;BME280;66439;50.106;10.996;2023-04-01T21:07:38;97575.76;;;10.75;72.65
77381;BME280;66439;50.106;10.996;2023-04-01T21:16:32;97594.94;;;10.76;72.74
77381;BME280;66439;50.106;10.996;2023-04-01T21:19:25;97597.13;;;10.75;72.63
77381;BME280;66439;50.106;10.996;2023-04-01T21:25:27;97601.39;;;10.77;72.52
77381;BME280;66439;50.106;10.996;2023-04-01T21:36:59;97622.23;;;10.73;72.45
77381;BME280;66439;50.106;10.996;2023-04-01T21:40:15;97626.06;;;10.74;72.43
77381;BME280;66439;50.106;10.996;2023-04-01T21:43:17;97626.23;;;10.74;72.68
77381;BME280;66439;50.106;10.996;2023-04-01T21:46:17;97626.38;;;10.74;72.74
77381;BME280;66439;50.106;10.996;2023-04-01T21:52:17;97632.97;;;10.72;72.77
77381;BME280;66439;50.106;10.996;2023-04-01T22:09:55;97647.59;;;10.76;72.94
77381;BME280;66439;50.106;10.996;2023-04-01T22:12:45;97646.91;;;10.77;72.92
77381;BME280;66439;50.106;10.996;2023-04-01T22:15:48;97650.70;;;10.75;72.71